Time;durP1;ratioP1;P1;durP2;ratioP2;P2;SDS_P1;SDS_P2;PMS_P1;PMS_P2;Temp;Humidity;BMP_temperature;BMP_pressure;BME280_temperature;BME280_humidity;BME280_pressure;Samples;Min_cycle;Max_cycle;Signal;HPM_P1;HPM_P2
2022/01/01 00:02:13;;;;;;;260.50;128.43;;;;;;;;;;4997652;28;20030;-73
2022/01/01 00:04:40;;;;;;;256.08;124.68;;;;;;;;;;4996071;28;20114;-76
2022/01/01 00:07:06;;;;;;;258.08;127.72;;;;;;;;;;4982723;28;20043;-72
2022/01/01 00:09:32;;;;;;;284.33;133.45;;;;;;;;;;4989319;28;20047;-72
2022/01/01 00:11:58;;;;;;;265.58;134.23;;;;;;;;;;5002353;28;20038;-71
2022/01/01 00:14:24;;;;;;;270.02;134.57;;;;;;;;;;4998218;28;20026;-71
2022/01/01 00:16:50;;;;;;;240.95;122.05;;;;;;;;;;4981665;28;20045;-70
2022/01/01 00:19:16;;;;;;;230.95;111.88;;;;;;;;;;4981936;28;20035;-72
2022/01/01 00:21:43;;;;;;;243.05;110.28;;;;;;;;;;4998471;28;20050;-72
2022/01/01 00:24:09;;;;;;;238.77;113.38;;;;;;;;;;4982348;28;20093;-72
2022/01/01 00:26:36;;;;;;;241.23;116.45;;;;;;;;;;4997892;28;20034;-71
2022/01/01 00:29:02;;;;;;;236.07;115.55;;;;;;;;;;4999494;28;20034;-72
2022/01/01 00:31:29;;;;;;;234.43;118.20;;;;;;;;;;4982601;28;20030;-71
2022/01/01 00:33:55;;;;;;;249.68;121.68;;;;;;;;;;4995364;28;20045;-72
2022/01/01 00:36:21;;;;;;;258.58;125.10;;;;;;;;;;4995400;28;20089;-71
2022/01/01 00:38:48;;;;;;;251.93;128.40;;;;;;;;;;5000386;28;20030;-71
2022/01/01 00:41:14;;;;;;;282.83;142.57;;;;;;;;;;4996769;28;20066;-70
2022/01/01 00:43:40;;;;;;;281.98;146.73;;;;;;;;;;4997962;28;20022;-71
2022/01/01 00:46:06;;;;;;;289.30;150.70;;;;;;;;;;4997190;28;20108;-69
2022/01/01 00:48:32;;;;;;;299.38;155.60;;;;;;;;;;4996837;28;20253;-73
2022/01/01 00:50:58;;;;;;;334.80;170.52;;;;;;;;;;4981305;28;20088;-72
2022/01/01 00:53:24;;;;;;;322.08;169.10;;;;;;;;;;5000848;28;20022;-72
2022/01/01 00:55:50;;;;;;;317.15;168.68;;;;;;;;;;4996822;28;20031;-71
2022/01/01 00:58:16;;;;;;;307.92;161.77;;;;;;;;;;4982866;28;20018;-71
2022/01/01 01:00:42;;;;;;;316.55;165.65;;;;;;;;;;4981053;28;20090;-72
2022/01/01 01:03:15;;;;;;;329.40;181.88;;;;;;;;;;5000499;28;20124;-71
2022/01/01 01:05:45;;;;;;;342.67;189.00;;;;;;;;;;4997347;28;20061;-70
2022/01/01 01:08:11;;;;;;;364.80;196.60;;;;;;;;;;4994917;28;20027;-71
2022/01/01 01:10:38;;;;;;;375.67;199.85;;;;;;;;;;4996557;28;20400;-72
2022/01/01 01:13:05;;;;;;;359.52;186.40;;;;;;;;;;4981148;28;20015;-71
2022/01/01 01:15:32;;;;;;;368.33;181.88;;;;;;;;;;4981140;28;20034;-71
2022/01/01 01:17:58;;;;;;;345.42;172.77;;;;;;;;;;4998277;28;20002;-72
2022/01/01 01:20:25;;;;;;;321.67;162.60;;;;;;;;;;4997844;28;20034;-71
2022/01/01 01:22:51;;;;;;;337.17;158.70;;;;;;;;;;4998677;28;20094;-71
2022/01/01 01:25:17;;;;;;;310.15;145.70;;;;;;;;;;4993714;28;20061;-72
2022/01/01 01:27:44;;;;;;;302.88;143.50;;;;;;;;;;5000261;28;20081;-71
2022/01/01 01:30:13;;;;;;;290.52;136.60;;;;;;;;;;4997784;28;20113;-72
2022/01/01 01:32:39;;;;;;;289.02;133.10;;;;;;;;;;4997995;28;20126;-72
2022/01/01 01:35:06;;;;;;;249.85;124.20;;;;;;;;;;4996309;28;20061;-71
2022/01/01 01:37:32;;;;;;;260.48;114.22;;;;;;;;;;4997661;28;20045;-71
2022/01/01 01:39:58;;;;;;;235.40;110.45;;;;;;;;;;4996914;28;20484;-71
2022/01/01 01:42:27;;;;;;;232.02;106.28;;;;;;;;;;4980040;28;20031;-71
2022/01/01 01:44:54;;;;;;;231.70;102.00;;;;;;;;;;4995930;28;20027;-71
2022/01/01 01:47:33;;;;;;;237.25;99.47;;;;;;;;;;4982018;28;20066;-72
2022/01/01 01:49:59;;;;;;;224.02;93.97;;;;;;;;;;4996983;28;20066;-71
2022/01/01 01:52:29;;;;;;;223.90;94.82;;;;;;;;;;4998218;28;20045;-72
2022/01/01 01:54:55;;;;;;;197.13;86.32;;;;;;;;;;4996933;28;20022;-72
2022/01/01 01:57:22;;;;;;;205.23;84.97;;;;;;;;;;4996170;28;20794;-72
2022/01/01 01:59:49;;;;;;;200.55;81.68;;;;;;;;;;5000120;28;20092;-72
2022/01/01 02:02:15;;;;;;;189.57;74.32;;;;;;;;;;4996947;28;20164;-72
2022/01/01 02:04:41;;;;;;;165.38;67.03;;;;;;;;;;4994758;28;20068;-72
2022/01/01 02:07:10;;;;;;;158.80;67.75;;;;;;;;;;4995493;28;20022;-72
2022/01/01 02:09:37;;;;;;;156.32;62.33;;;;;;;;;;4996998;28;20050;-73
2022/01/01 02:12:04;;;;;;;149.13;60.47;;;;;;;;;;4997070;28;20539;-72
2022/01/01 02:14:52;;;;;;;146.75;59.17;;;;;;;;;;4980337;28;20395;-72
2022/01/01 02:17:18;;;;;;;124.35;54.90;;;;;;;;;;4996641;28;20153;-71
2022/01/01 02:19:44;;;;;;;140.07;52.88;;;;;;;;;;4992273;28;20022;-72
2022/01/01 02:22:11;;;;;;;121.40;52.17;;;;;;;;;;4996478;28;20465;-70
2022/01/01 02:24:37;;;;;;;117.45;49.92;;;;;;;;;;4998521;28;20033;-72
2022/01/01 02:27:04;;;;;;;124.45;48.38;;;;;;;;;;4979540;28;20491;-70
2022/01/01 02:29:30;;;;;;;130.00;48.67;;;;;;;;;;4993710;28;20025;-72
2022/01/01 02:31:56;;;;;;;117.20;46.55;;;;;;;;;;4994384;28;20030;-71
2022/01/01 02:34:22;;;;;;;119.57;43.13;;;;;;;;;;4983015;28;20007;-72
2022/01/01 02:36:48;;;;;;;86.13;36.08;;;;;;;;;;4980070;28;20030;-73
2022/01/01 02:39:15;;;;;;;80.35;30.75;;;;;;;;;;4995352;28;20026;-72
2022/01/01 02:41:42;;;;;;;85.63;31.40;;;;;;;;;;4996303;28;20037;-72
2022/01/01 02:44:08;;;;;;;77.93;28.58;;;;;;;;;;5000646;28;20089;-72
2022/01/01 02:46:34;;;;;;;96.28;27.17;;;;;;;;;;4993945;28;20033;-72
2022/01/01 02:49:01;;;;;;;86.72;27.75;;;;;;;;;;4996593;28;20034;-72
2022/01/01 02:51:27;;;;;;;75.40;25.63;;;;;;;;;;4996120;28;20034;-73
2022/01/01 02:53:53;;;;;;;70.88;23.45;;;;;;;;;;4998094;28;20057;-72
2022/01/01 02:56:19;;;;;;;76.38;24.20;;;;;;;;;;4992780;28;20484;-71
2022/01/01 02:58:45;;;;;;;71.05;24.30;;;;;;;;;;4986699;28;20030;-71
2022/01/01 03:01:11;;;;;;;86.68;26.10;;;;;;;;;;4991529;28;20049;-71
2022/01/01 03:03:37;;;;;;;65.70;23.15;;;;;;;;;;5006126;28;20036;-72
2022/01/01 03:06:03;;;;;;;79.07;23.92;;;;;;;;;;5004282;28;20019;-73
2022/01/01 03:08:29;;;;;;;90.28;25.30;;;;;;;;;;5000019;28;20026;-72
2022/01/01 03:10:56;;;;;;;74.78;26.52;;;;;;;;;;4996328;28;20117;-73
2022/01/01 03:13:22;;;;;;;75.55;27.77;;;;;;;;;;4994662;28;20030;-74
2022/01/01 03:15:48;;;;;;;85.68;29.52;;;;;;;;;;4993659;28;20463;-73
2022/01/01 03:18:14;;;;;;;89.55;30.58;;;;;;;;;;4980463;28;20039;-72
2022/01/01 03:20:40;;;;;;;96.95;34.20;;;;;;;;;;4994506;28;20037;-72
2022/01/01 03:23:06;;;;;;;75.82;32.13;;;;;;;;;;4996907;28;20140;-72
2022/01/01 03:25:32;;;;;;;86.80;34.65;;;;;;;;;;4976519;28;20030;-73
2022/01/01 03:27:58;;;;;;;98.85;36.65;;;;;;;;;;4999714;28;20037;-72
2022/01/01 03:30:24;;;;;;;92.47;36.88;;;;;;;;;;4996971;28;20030;-72
2022/01/01 03:32:50;;;;;;;95.90;38.35;;;;;;;;;;4978772;28;20080;-71
2022/01/01 03:35:16;;;;;;;95.88;35.92;;;;;;;;;;4977612;28;20495;-72
2022/01/01 03:37:42;;;;;;;87.32;37.55;;;;;;;;;;4996551;28;20033;-71
2022/01/01 03:40:08;;;;;;;97.03;39.78;;;;;;;;;;4995594;28;20109;-73
2022/01/01 03:42:34;;;;;;;93.28;37.95;;;;;;;;;;4995053;28;20034;-72
2022/01/01 03:45:00;;;;;;;92.18;38.40;;;;;;;;;;4993663;28;20029;-73
2022/01/01 03:47:26;;;;;;;90.90;38.17;;;;;;;;;;4994180;28;20038;-73
2022/01/01 03:49:52;;;;;;;95.45;36.88;;;;;;;;;;4977358;28;20098;-73
2022/01/01 03:52:18;;;;;;;106.95;39.58;;;;;;;;;;4978313;28;20033;-73
2022/01/01 03:54:44;;;;;;;99.63;37.20;;;;;;;;;;4994364;28;20057;-72
2022/01/01 03:57:10;;;;;;;106.93;40.10;;;;;;;;;;4976700;28;20362;-72
2022/01/01 03:59:36;;;;;;;86.57;35.83;;;;;;;;;;4996429;28;20026;-72
2022/01/01 04:02:03;;;;;;;94.28;37.42;;;;;;;;;;4989459;28;20033;-72
2022/01/01 04:04:29;;;;;;;88.50;35.95;;;;;;;;;;4994157;28;20018;-72
2022/01/01 04:06:57;;;;;;;93.50;37.15;;;;;;;;;;4991090;28;20030;-72
2022/01/01 04:09:23;;;;;;;86.05;36.28;;;;;;;;;;4995512;28;20081;-72
2022/01/01 04:11:51;;;;;;;88.80;36.28;;;;;;;;;;4993889;28;20108;-72
2022/01/01 04:14:17;;;;;;;95.60;37.65;;;;;;;;;;5001377;28;20101;-72
2022/01/01 04:16:44;;;;;;;93.78;37.13;;;;;;;;;;4995564;28;20093;-72
2022/01/01 04:19:11;;;;;;;94.90;37.47;;;;;;;;;;4996541;28;20230;-72
2022/01/01 04:21:36;;;;;;;87.63;38.00;;;;;;;;;;4990674;28;20067;-72
2022/01/01 04:24:02;;;;;;;82.05;35.72;;;;;;;;;;4992598;28;20189;-72
2022/01/01 04:26:29;;;;;;;90.05;37.35;;;;;;;;;;4986523;28;20069;-72
2022/01/01 04:28:55;;;;;;;92.10;38.22;;;;;;;;;;4976629;28;20181;-72
2022/01/01 04:31:21;;;;;;;88.45;36.25;;;;;;;;;;4994186;28;20105;-72
2022/01/01 04:33:47;;;;;;;93.03;37.78;;;;;;;;;;4976230;28;20034;-72
2022/01/01 04:36:13;;;;;;;90.80;37.20;;;;;;;;;;4991164;28;20121;-72
2022/01/01 04:38:41;;;;;;;81.90;35.65;;;;;;;;;;4995994;28;20038;-72
2022/01/01 04:41:12;;;;;;;77.57;35.13;;;;;;;;;;4998272;28;20022;-72
2022/01/01 04:43:39;;;;;;;86.30;36.47;;;;;;;;;;4995061;28;20022;-70
2022/01/01 04:46:05;;;;;;;94.43;35.40;;;;;;;;;;4993908;28;20137;-72
2022/01/01 04:48:31;;;;;;;84.07;36.65;;;;;;;;;;4995241;28;20399;-71
2022/01/01 04:50:57;;;;;;;81.40;33.67;;;;;;;;;;4995973;28;20014;-72
2022/01/01 04:53:23;;;;;;;90.68;34.25;;;;;;;;;;4993954;28;20114;-72
2022/01/01 04:55:49;;;;;;;82.20;33.28;;;;;;;;;;4999661;28;20006;-73
2022/01/01 04:58:16;;;;;;;88.63;33.88;;;;;;;;;;4979812;28;20038;-72
2022/01/01 05:00:42;;;;;;;94.53;36.38;;;;;;;;;;4998706;28;20089;-72
2022/01/01 05:03:08;;;;;;;77.95;33.58;;;;;;;;;;4979637;28;20030;-73
2022/01/01 05:05:34;;;;;;;88.57;33.30;;;;;;;;;;4999566;28;20082;-72
2022/01/01 05:08:00;;;;;;;78.95;32.97;;;;;;;;;;4998144;28;20026;-72
2022/01/01 05:10:26;;;;;;;90.75;33.42;;;;;;;;;;4999220;28;20093;-72
2022/01/01 05:12:52;;;;;;;93.50;35.17;;;;;;;;;;4994077;28;20038;-72
2022/01/01 05:15:18;;;;;;;81.10;32.63;;;;;;;;;;4998347;28;20023;-72
2022/01/01 05:17:45;;;;;;;79.07;35.22;;;;;;;;;;4997015;28;20093;-72
2022/01/01 05:20:11;;;;;;;83.60;33.47;;;;;;;;;;4992669;28;20539;-72
2022/01/01 05:22:37;;;;;;;85.13;33.63;;;;;;;;;;4995207;28;20054;-72
2022/01/01 05:25:05;;;;;;;81.05;33.08;;;;;;;;;;4998900;28;20023;-69
2022/01/01 05:27:34;;;;;;;92.82;32.90;;;;;;;;;;4998018;28;20030;-74
2022/01/01 05:30:01;;;;;;;74.28;30.08;;;;;;;;;;4981370;28;20117;-72
2022/01/01 05:32:27;;;;;;;75.18;30.63;;;;;;;;;;4998471;28;20070;-72
2022/01/01 05:34:53;;;;;;;68.53;31.08;;;;;;;;;;4995843;28;20105;-72
2022/01/01 05:37:19;;;;;;;70.50;28.58;;;;;;;;;;4996583;28;20034;-72
2022/01/01 05:39:45;;;;;;;64.22;27.95;;;;;;;;;;4980485;28;20085;-71
2022/01/01 05:42:11;;;;;;;61.67;27.73;;;;;;;;;;4982863;28;20042;-72
2022/01/01 05:44:37;;;;;;;64.50;27.52;;;;;;;;;;4996834;28;20038;-73
2022/01/01 05:47:03;;;;;;;67.15;27.08;;;;;;;;;;4996641;28;20038;-73
2022/01/01 05:49:29;;;;;;;65.13;28.70;;;;;;;;;;4995953;28;20073;-73
2022/01/01 05:51:55;;;;;;;74.50;32.08;;;;;;;;;;4996959;28;20042;-72
2022/01/01 05:54:21;;;;;;;71.20;31.40;;;;;;;;;;4995809;28;20583;-71
2022/01/01 05:56:47;;;;;;;67.00;30.95;;;;;;;;;;4981717;28;20121;-73
2022/01/01 05:59:13;;;;;;;56.38;27.75;;;;;;;;;;4994503;28;20027;-72
2022/01/01 06:01:39;;;;;;;75.47;29.23;;;;;;;;;;4972006;28;20034;-71
2022/01/01 06:04:05;;;;;;;72.00;26.45;;;;;;;;;;4997955;28;20031;-72
2022/01/01 06:06:31;;;;;;;63.35;27.90;;;;;;;;;;4983239;28;20133;-71
2022/01/01 06:08:57;;;;;;;57.45;25.15;;;;;;;;;;4994169;28;20125;-72
2022/01/01 06:11:23;;;;;;;49.70;23.25;;;;;;;;;;4995919;28;20089;-72
2022/01/01 06:13:49;;;;;;;55.45;24.48;;;;;;;;;;4975244;28;20023;-72
2022/01/01 06:16:15;;;;;;;67.05;25.85;;;;;;;;;;4995260;28;20038;-71
2022/01/01 06:18:41;;;;;;;55.78;24.55;;;;;;;;;;4998465;28;20035;-71
2022/01/01 06:21:07;;;;;;;56.85;24.52;;;;;;;;;;4974179;28;20522;-72
2022/01/01 06:23:37;;;;;;;57.65;23.67;;;;;;;;;;4981927;28;20026;-71
2022/01/01 06:26:03;;;;;;;56.55;25.38;;;;;;;;;;4980226;28;20018;-70
2022/01/01 06:28:29;;;;;;;59.28;23.50;;;;;;;;;;4968054;28;20041;-71
2022/01/01 06:30:55;;;;;;;59.20;24.17;;;;;;;;;;4964559;28;20038;-71
2022/01/01 06:33:21;;;;;;;53.25;22.25;;;;;;;;;;4980263;28;20071;-72
2022/01/01 06:35:48;;;;;;;57.75;24.67;;;;;;;;;;4966771;28;20045;-71
2022/01/01 06:38:15;;;;;;;44.10;23.10;;;;;;;;;;4987500;28;20050;-72
2022/01/01 06:40:41;;;;;;;55.40;23.85;;;;;;;;;;4986646;28;20092;-71
2022/01/01 06:43:15;;;;;;;56.33;23.80;;;;;;;;;;4980037;28;20031;-71
2022/01/01 06:45:41;;;;;;;59.60;25.70;;;;;;;;;;4977542;28;20615;-71
2022/01/01 06:48:07;;;;;;;63.30;25.52;;;;;;;;;;4984671;28;20031;-71
2022/01/01 06:50:33;;;;;;;63.65;25.05;;;;;;;;;;4980550;28;20070;-72
2022/01/01 06:52:59;;;;;;;58.38;25.33;;;;;;;;;;4965256;28;20046;-72
2022/01/01 06:55:26;;;;;;;48.22;23.58;;;;;;;;;;4976849;28;20034;-72
2022/01/01 06:57:52;;;;;;;49.97;22.88;;;;;;;;;;4981493;28;20124;-70
2022/01/01 07:00:18;;;;;;;51.25;22.88;;;;;;;;;;4960079;28;20043;-71
2022/01/01 07:02:46;;;;;;;51.47;23.08;;;;;;;;;;4979370;28;20479;-71
2022/01/01 07:05:13;;;;;;;53.35;20.95;;;;;;;;;;4963656;28;20105;-71
2022/01/01 07:07:39;;;;;;;51.70;19.92;;;;;;;;;;4985883;28;20022;-71
2022/01/01 07:10:06;;;;;;;44.60;21.38;;;;;;;;;;4979841;28;20066;-71
2022/01/01 07:12:32;;;;;;;48.13;20.42;;;;;;;;;;4982046;28;20030;-71
2022/01/01 07:14:58;;;;;;;39.17;19.50;;;;;;;;;;4982149;28;20073;-72
2022/01/01 07:17:24;;;;;;;40.97;20.17;;;;;;;;;;4958667;28;20031;-72
2022/01/01 07:19:50;;;;;;;43.13;19.92;;;;;;;;;;4977468;28;20085;-71
2022/01/01 07:22:16;;;;;;;39.83;18.95;;;;;;;;;;4970319;28;20496;-69
2022/01/01 07:24:42;;;;;;;38.67;18.92;;;;;;;;;;4994618;28;20100;-72
2022/01/01 07:27:08;;;;;;;42.20;20.42;;;;;;;;;;4992358;28;20101;-72
2022/01/01 07:29:34;;;;;;;44.83;18.92;;;;;;;;;;4996057;28;20098;-71
2022/01/01 07:32:00;;;;;;;42.33;18.27;;;;;;;;;;4993148;28;20061;-72
2022/01/01 07:34:26;;;;;;;43.50;19.25;;;;;;;;;;4973752;28;20085;-71
2022/01/01 07:36:52;;;;;;;34.67;17.13;;;;;;;;;;4995192;28;20030;-71
2022/01/01 07:39:18;;;;;;;39.72;19.08;;;;;;;;;;4981403;28;20053;-72
2022/01/01 07:41:44;;;;;;;37.55;17.20;;;;;;;;;;4993836;28;20044;-71
2022/01/01 07:44:11;;;;;;;33.70;16.20;;;;;;;;;;4994520;28;20022;-72
2022/01/01 07:46:37;;;;;;;33.97;16.80;;;;;;;;;;4993282;28;20038;-72
2022/01/01 07:49:03;;;;;;;44.80;17.05;;;;;;;;;;4978885;28;20041;-70
2022/01/01 07:51:29;;;;;;;57.15;18.98;;;;;;;;;;4994475;28;20038;-71
2022/01/01 07:53:55;;;;;;;36.50;17.08;;;;;;;;;;4993839;28;20102;-72
2022/01/01 07:56:21;;;;;;;32.75;14.80;;;;;;;;;;4973648;28;20031;-71
2022/01/01 07:58:47;;;;;;;36.58;14.20;;;;;;;;;;4994057;28;20096;-70
2022/01/01 08:01:13;;;;;;;32.00;15.48;;;;;;;;;;4979109;28;20495;-71
2022/01/01 08:03:39;;;;;;;31.55;13.82;;;;;;;;;;4994093;28;20034;-72
2022/01/01 08:06:05;;;;;;;31.88;13.77;;;;;;;;;;4994119;28;20017;-71
2022/01/01 08:08:31;;;;;;;30.98;13.95;;;;;;;;;;4994295;28;20492;-71
2022/01/01 08:10:58;;;;;;;28.70;12.90;;;;;;;;;;4982368;28;20046;-72
2022/01/01 08:13:25;;;;;;;29.27;13.52;;;;;;;;;;4978485;28;20452;-72
2022/01/01 08:15:55;;;;;;;32.83;13.43;;;;;;;;;;4994775;28;20026;-71
2022/01/01 08:18:21;;;;;;;28.80;13.20;;;;;;;;;;4992435;28;20109;-72
2022/01/01 08:20:48;;;;;;;32.30;12.73;;;;;;;;;;4994413;28;20050;-72
2022/01/01 08:23:15;;;;;;;31.90;12.75;;;;;;;;;;4982724;28;20105;-74
2022/01/01 08:25:41;;;;;;;29.73;12.98;;;;;;;;;;4997797;28;20038;-74
2022/01/01 08:28:09;;;;;;;28.40;12.05;;;;;;;;;;5004210;28;20292;-74
2022/01/01 08:30:35;;;;;;;26.63;12.10;;;;;;;;;;5000453;28;20130;-76
2022/01/01 08:33:02;;;;;;;32.42;12.07;;;;;;;;;;4996328;28;20030;-75
2022/01/01 08:35:29;;;;;;;24.98;11.95;;;;;;;;;;5000060;28;20605;-76
2022/01/01 08:37:56;;;;;;;27.83;12.25;;;;;;;;;;4997941;28;20505;-74
2022/01/01 08:40:22;;;;;;;23.60;11.68;;;;;;;;;;4996334;28;20471;-74
2022/01/01 08:42:48;;;;;;;23.77;10.85;;;;;;;;;;5001043;28;20525;-74
2022/01/01 08:45:14;;;;;;;23.42;11.20;;;;;;;;;;4996092;28;20069;-74
2022/01/01 08:47:41;;;;;;;33.58;11.98;;;;;;;;;;4997723;28;20037;-74
2022/01/01 08:50:08;;;;;;;25.88;10.95;;;;;;;;;;4973375;28;21613;-75
2022/01/01 08:52:34;;;;;;;20.65;10.40;;;;;;;;;;4991416;28;20146;-75
2022/01/01 08:55:00;;;;;;;25.63;10.35;;;;;;;;;;4977663;28;20052;-72
2022/01/01 08:57:26;;;;;;;25.13;10.07;;;;;;;;;;4998213;28;20062;-74
2022/01/01 08:59:53;;;;;;;21.65;10.35;;;;;;;;;;4996007;28;20392;-73
2022/01/01 09:02:19;;;;;;;25.15;10.60;;;;;;;;;;4995845;28;20033;-75
2022/01/01 09:04:46;;;;;;;22.75;9.88;;;;;;;;;;4991875;28;20045;-73
2022/01/01 09:07:12;;;;;;;24.73;10.00;;;;;;;;;;4997579;28;20037;-72
2022/01/01 09:09:39;;;;;;;28.60;9.52;;;;;;;;;;4993389;28;20038;-73
2022/01/01 09:12:07;;;;;;;21.15;9.38;;;;;;;;;;4997121;28;20044;-74
2022/01/01 09:14:33;;;;;;;26.70;10.05;;;;;;;;;;4980789;28;20064;-73
2022/01/01 09:16:59;;;;;;;20.73;9.65;;;;;;;;;;4977115;28;20483;-73
2022/01/01 09:19:26;;;;;;;27.48;9.75;;;;;;;;;;4997529;28;20034;-74
2022/01/01 09:21:52;;;;;;;22.85;10.23;;;;;;;;;;4995938;28;20050;-73
2022/01/01 09:24:18;;;;;;;24.15;11.05;;;;;;;;;;4980114;28;20443;-74
2022/01/01 09:26:44;;;;;;;24.17;11.00;;;;;;;;;;4997314;28;20385;-75
2022/01/01 09:29:11;;;;;;;25.33;10.43;;;;;;;;;;4977212;28;20184;-75
2022/01/01 09:31:41;;;;;;;26.20;10.93;;;;;;;;;;4997408;28;20034;-75
2022/01/01 09:34:07;;;;;;;24.73;10.88;;;;;;;;;;4996934;28;20496;-74
2022/01/01 09:36:34;;;;;;;24.52;10.80;;;;;;;;;;4996014;28;20030;-74
2022/01/01 09:39:00;;;;;;;23.65;10.85;;;;;;;;;;4992428;28;20037;-74
2022/01/01 09:41:26;;;;;;;25.30;10.77;;;;;;;;;;4994621;28;20046;-76
2022/01/01 09:43:56;;;;;;;24.13;10.48;;;;;;;;;;4980994;28;20041;-73
2022/01/01 09:46:22;;;;;;;25.92;12.27;;;;;;;;;;4996075;28;20053;-77
2022/01/01 09:48:51;;;;;;;19.10;11.13;;;;;;;;;;4996910;28;20483;-73
2022/01/01 09:51:17;;;;;;;25.88;12.25;;;;;;;;;;4993579;28;20057;-73
2022/01/01 09:53:43;;;;;;;28.13;13.13;;;;;;;;;;4994393;28;20459;-71
2022/01/01 09:56:09;;;;;;;27.38;12.93;;;;;;;;;;4991618;28;20035;-73
2022/01/01 09:58:37;;;;;;;29.73;12.18;;;;;;;;;;4995680;28;20050;-71
2022/01/01 10:01:06;;;;;;;29.27;13.90;;;;;;;;;;4976580;28;20030;-75
2022/01/01 10:03:41;;;;;;;34.83;13.85;;;;;;;;;;4994472;28;20026;-72
2022/01/01 10:06:09;;;;;;;26.80;13.35;;;;;;;;;;4976755;28;20035;-72
2022/01/01 10:08:38;;;;;;;31.90;13.98;;;;;;;;;;4995933;28;20045;-73
2022/01/01 10:11:04;;;;;;;26.15;13.63;;;;;;;;;;4993313;28;20122;-74
2022/01/01 10:13:33;;;;;;;27.67;13.88;;;;;;;;;;4991468;28;20030;-73
2022/01/01 10:16:00;;;;;;;29.02;13.18;;;;;;;;;;4974737;28;20050;-72
2022/01/01 10:18:28;;;;;;;29.23;13.90;;;;;;;;;;4994023;28;20057;-72
2022/01/01 10:20:59;;;;;;;27.23;13.52;;;;;;;;;;4992110;28;20042;-72
2022/01/01 10:23:28;;;;;;;27.02;13.52;;;;;;;;;;4972042;28;20073;-72
2022/01/01 10:29:09;;;;;;;27.73;14.30;;;;;;;;;;4991712;28;20046;-72
2022/01/01 10:31:36;;;;;;;30.42;14.32;;;;;;;;;;4976614;28;20038;-72
2022/01/01 10:34:09;;;;;;;29.55;14.60;;;;;;;;;;4998077;28;20089;-73
2022/01/01 10:36:35;;;;;;;37.28;14.95;;;;;;;;;;4993189;28;20049;-75
2022/01/01 10:39:08;;;;;;;27.63;14.80;;;;;;;;;;4977460;28;20064;-73
2022/01/01 10:41:45;;;;;;;27.02;15.32;;;;;;;;;;4992394;28;20148;-72
2022/01/01 10:44:12;;;;;;;34.92;16.00;;;;;;;;;;4995960;28;20053;-74
2022/01/01 10:46:38;;;;;;;35.80;17.13;;;;;;;;;;4991120;28;20034;-73
2022/01/01 10:49:31;;;;;;;32.90;18.75;;;;;;;;;;4990572;28;20049;-73
2022/01/01 10:52:12;;;;;;;28.70;18.20;;;;;;;;;;4990143;28;20030;-72
2022/01/01 10:54:38;;;;;;;32.80;18.20;;;;;;;;;;4970251;28;20026;-73
2022/01/01 10:57:08;;;;;;;32.10;18.65;;;;;;;;;;4989177;28;20027;-72
2022/01/01 10:59:37;;;;;;;34.08;18.95;;;;;;;;;;4991198;28;20144;-74
2022/01/01 11:02:06;;;;;;;30.58;18.40;;;;;;;;;;4991443;28;20137;-73
2022/01/01 11:04:34;;;;;;;33.67;20.50;;;;;;;;;;4994231;28;20511;-73
2022/01/01 11:07:00;;;;;;;32.67;18.38;;;;;;;;;;4992160;28;20037;-71
2022/01/01 11:09:27;;;;;;;30.35;18.58;;;;;;;;;;4972131;28;20128;-70
2022/01/01 11:12:00;;;;;;;31.25;19.08;;;;;;;;;;4989179;28;20041;-71
2022/01/01 11:14:26;;;;;;;34.28;19.45;;;;;;;;;;4988458;28;20030;-72
2022/01/01 11:16:52;;;;;;;30.35;18.83;;;;;;;;;;4990054;28;20023;-72
2022/01/01 11:19:19;;;;;;;30.20;18.33;;;;;;;;;;4991098;28;20038;-70
2022/01/01 11:21:45;;;;;;;28.45;18.65;;;;;;;;;;4990849;28;20058;-71
2022/01/01 11:24:12;;;;;;;32.08;19.83;;;;;;;;;;4990556;28;20034;-72
2022/01/01 11:26:38;;;;;;;29.40;18.75;;;;;;;;;;4991017;28;20038;-72
2022/01/01 11:29:04;;;;;;;33.22;18.65;;;;;;;;;;4992006;28;20037;-71
2022/01/01 11:31:30;;;;;;;35.03;19.52;;;;;;;;;;4991737;28;20042;-71
2022/01/01 11:34:00;;;;;;;29.33;18.88;;;;;;;;;;4991008;28;20030;-70
2022/01/01 11:36:29;;;;;;;31.13;17.90;;;;;;;;;;4972874;28;20455;-73
2022/01/01 11:38:55;;;;;;;32.00;18.25;;;;;;;;;;4972925;28;20105;-70
2022/01/01 11:41:21;;;;;;;28.58;16.90;;;;;;;;;;4991711;28;20400;-72
2022/01/01 11:43:51;;;;;;;26.35;16.50;;;;;;;;;;4989974;28;20065;-72
2022/01/01 11:46:20;;;;;;;29.55;16.15;;;;;;;;;;4974654;28;20361;-73
2022/01/01 11:48:47;;;;;;;27.45;17.23;;;;;;;;;;4986908;28;20495;-71
2022/01/01 11:51:29;;;;;;;26.40;15.23;;;;;;;;;;4989330;28;20037;-72
2022/01/01 11:54:13;;;;;;;25.38;15.35;;;;;;;;;;4988135;28;20027;-72
2022/01/01 11:56:52;;;;;;;24.80;15.30;;;;;;;;;;4969693;28;20488;-70
2022/01/01 11:59:19;;;;;;;24.77;14.85;;;;;;;;;;4989743;28;20558;-71
2022/01/01 12:01:45;;;;;;;27.55;14.45;;;;;;;;;;4990989;28;20033;-70
2022/01/01 12:04:33;;;;;;;26.55;14.55;;;;;;;;;;4975846;28;20041;-71
2022/01/01 12:07:17;;;;;;;25.50;14.98;;;;;;;;;;4980001;28;20057;-74
2022/01/01 12:09:55;;;;;;;23.95;14.35;;;;;;;;;;4989175;28;20041;-72
2022/01/01 12:12:37;;;;;;;20.60;13.80;;;;;;;;;;4984128;28;20411;-73
2022/01/01 12:15:08;;;;;;;21.85;14.20;;;;;;;;;;4991283;28;20027;-72
2022/01/01 12:17:48;;;;;;;26.33;14.67;;;;;;;;;;4973542;28;20472;-73
2022/01/01 12:20:15;;;;;;;25.77;14.90;;;;;;;;;;4990285;28;20285;-75
2022/01/01 12:22:48;;;;;;;23.58;14.57;;;;;;;;;;4972528;28;20141;-72
2022/01/01 12:25:15;;;;;;;21.83;13.40;;;;;;;;;;4988054;28;20030;-72
2022/01/01 12:27:47;;;;;;;28.27;14.45;;;;;;;;;;4990696;28;20034;-71
2022/01/01 12:30:14;;;;;;;23.55;14.73;;;;;;;;;;4991305;28;20109;-71
2022/01/01 12:32:45;;;;;;;22.38;14.45;;;;;;;;;;4974854;28;20037;-72
2022/01/01 12:35:30;;;;;;;23.98;14.38;;;;;;;;;;4987604;28;20033;-72
2022/01/01 12:38:09;;;;;;;20.95;13.50;;;;;;;;;;4974382;28;20514;-71
2022/01/01 12:40:36;;;;;;;25.92;14.75;;;;;;;;;;4991649;28;21566;-71
2022/01/01 12:43:10;;;;;;;23.17;14.20;;;;;;;;;;4974445;28;20041;-72
2022/01/01 12:45:36;;;;;;;24.33;14.90;;;;;;;;;;4988012;28;20120;-72
2022/01/01 12:48:03;;;;;;;24.73;15.52;;;;;;;;;;4990635;28;21631;-72
2022/01/01 12:50:29;;;;;;;26.23;14.23;;;;;;;;;;4991703;28;20033;-72
2022/01/01 12:52:57;;;;;;;23.65;13.68;;;;;;;;;;4991436;28;20555;-72
2022/01/01 12:55:24;;;;;;;21.60;13.70;;;;;;;;;;4992429;28;20034;-72
2022/01/01 12:57:50;;;;;;;21.67;13.50;;;;;;;;;;4991348;28;20027;-72
2022/01/01 13:00:20;;;;;;;20.50;13.18;;;;;;;;;;4967634;28;20048;-71
2022/01/01 13:02:46;;;;;;;19.35;12.85;;;;;;;;;;4974373;28;20061;-72
2022/01/01 13:05:15;;;;;;;21.95;13.18;;;;;;;;;;4992585;28;20046;-72
2022/01/01 13:07:41;;;;;;;19.88;12.48;;;;;;;;;;4990764;28;20049;-72
2022/01/01 13:10:07;;;;;;;19.92;12.13;;;;;;;;;;4990552;28;20030;-72
2022/01/01 13:12:34;;;;;;;20.75;12.02;;;;;;;;;;4990631;28;20122;-72
2022/01/01 13:15:00;;;;;;;21.63;11.75;;;;;;;;;;4992522;28;20026;-72
2022/01/01 13:17:26;;;;;;;17.52;11.52;;;;;;;;;;4974423;28;20042;-72
2022/01/01 13:19:55;;;;;;;19.55;11.75;;;;;;;;;;4992344;28;20104;-72
2022/01/01 13:22:29;;;;;;;18.63;10.63;;;;;;;;;;4988582;28;20042;-72
2022/01/01 13:24:56;;;;;;;20.00;11.13;;;;;;;;;;4986188;28;20037;-72
2022/01/01 13:27:28;;;;;;;17.20;10.43;;;;;;;;;;4988615;28;20050;-72
2022/01/01 13:29:55;;;;;;;17.52;10.98;;;;;;;;;;4990057;28;20038;-71
2022/01/01 13:32:21;;;;;;;15.98;9.93;;;;;;;;;;4989917;28;20015;-72
2022/01/01 13:34:53;;;;;;;19.08;11.23;;;;;;;;;;4970930;28;20400;-72
2022/01/01 13:37:23;;;;;;;16.95;10.38;;;;;;;;;;4991033;28;20037;-72
2022/01/01 13:39:51;;;;;;;16.85;9.52;;;;;;;;;;4988583;28;20069;-71
2022/01/01 13:42:17;;;;;;;16.75;10.05;;;;;;;;;;4989135;28;20018;-72
2022/01/01 13:44:43;;;;;;;17.15;10.35;;;;;;;;;;4989166;28;20037;-71
2022/01/01 13:47:10;;;;;;;14.73;9.32;;;;;;;;;;4989738;28;20056;-72
2022/01/01 13:49:40;;;;;;;15.43;9.40;;;;;;;;;;4969346;28;20535;-72
2022/01/01 13:52:06;;;;;;;15.63;9.63;;;;;;;;;;4990696;28;20113;-72
2022/01/01 13:54:35;;;;;;;19.20;9.82;;;;;;;;;;4973429;28;20037;-72
2022/01/01 13:57:08;;;;;;;18.95;9.52;;;;;;;;;;4990039;28;20113;-71
2022/01/01 13:59:35;;;;;;;13.52;8.77;;;;;;;;;;4990502;28;20384;-72
2022/01/01 14:02:05;;;;;;;13.90;8.77;;;;;;;;;;4990340;28;20034;-72
2022/01/01 14:04:35;;;;;;;15.52;8.90;;;;;;;;;;4989807;28;20165;-72
2022/01/01 14:07:05;;;;;;;13.33;9.03;;;;;;;;;;4988948;28;20037;-72
2022/01/01 14:09:31;;;;;;;16.90;9.50;;;;;;;;;;4990467;28;20031;-72
2022/01/01 14:11:57;;;;;;;18.42;10.55;;;;;;;;;;4973618;28;20421;-71
2022/01/01 14:14:32;;;;;;;16.35;9.55;;;;;;;;;;4988832;28;20041;-71
2022/01/01 14:17:00;;;;;;;14.93;8.43;;;;;;;;;;4989993;28;20037;-72
2022/01/01 14:19:26;;;;;;;13.13;9.05;;;;;;;;;;4989695;28;20292;-72